Heydar Aliyev International Airport
UBBB : now visible

Airfield :











YOU CAN JOIN US ON...

 
LOGIN :

Register | Disclaimer

   EN    FR    IT 

 









Legend :    VFR   Marginal VFR   IFR   Intensive IFR   Very Intensive IFR
Visi :
Ceiling :
>= 8 km
>= 3000ft
5 to 8 km
1000 to 3000 ft
1500m to 5 km
500 to 1000 ft
800 to 1500m
200 to 500 ft
< 800m
< 200 ft
Symbols :   Thunderstorms  Fog  Heavy snow  Heavy precipitations  Wind > 20 kt






- Airport Elevation : 10 ft
- IATA code : GYD


UBBB - Heydar Aliyev International

CURRENT METAR :
  • 050530Z 33020KT CAVOK 24/14 Q1014 R88/CLRD// NOSIG

EXPIRED METARs :
  • 050500Z 33024KT CAVOK 23/14 Q1014 R88/CLRD// NOSIG
  • 050430Z 32018KT CAVOK 22/15 Q1014 R88/D NOSIG
  • 050400Z 32016KT CAVOK 22/14 Q1013 R88/CLRD// NOSIG
  • 050330Z 31014KT CAVOK 21/15 Q1013 R88/D NOSIG
  • 050300Z 32012KT CAVOK 20/15 Q1012 R88/D NOSIG

TAF TAF UBBB
Valid from the 05 at 06:00 until the 06 at 06:00 UTC


050508Z 0506/0606 33020G30KT 9999 SCT040 TX25/0510Z TN16/0602Z
TEMPO 0507/0520 34026G36KT SCT050CB BKN100
PROB40
TEMPO 0520/0524 TS BKN040CB
TEMPO
BECMG 0600/0602 34016G26KT
UBBA FIR / Asia



MET'MAP, your aeronautical weather chart ! - Copyright ORBIFLY December 2007 - Disclaimer

ORBIFLY MET'MAP TEAM :

Programming & Development : Alexandra Zaïnal
Concept & original design : Baudouin d'Aumeries
Assistance for programming : Marc-Olivier Méhu
Technical & hardware support : Manuel Goepfert

Contact : metmap@orbifly.com




SOURCES & CREDITS :

   NOAA       Earth
Advisory